sensor_id;sensor_type;location;lat;lon;timestamp;P1;durP1;ratioP1;P2;durP2;ratioP2
44706;SDS011;30433;45.596;8.408;2023-08-24T00:04:28;9.10;;;8.20;;
44706;SDS011;30433;45.596;8.408;2023-08-24T00:10:32;11.35;;;8.38;;
44706;SDS011;30433;45.596;8.408;2023-08-24T00:16:34;9.57;;;8.57;;
44706;SDS011;30433;45.596;8.408;2023-08-24T00:22:37;10.98;;;8.68;;
44706;SDS011;30433;45.596;8.408;2023-08-24T00:28:41;10.38;;;7.53;;
44706;SDS011;30433;45.596;8.408;2023-08-24T00:34:43;8.90;;;7.80;;
44706;SDS011;30433;45.596;8.408;2023-08-24T00:40:46;10.48;;;8.23;;
44706;SDS011;30433;45.596;8.408;2023-08-24T00:46:50;9.85;;;8.15;;
44706;SDS011;30433;45.596;8.408;2023-08-24T00:52:52;12.00;;;8.23;;
44706;SDS011;30433;45.596;8.408;2023-08-24T00:58:55;10.45;;;8.00;;
44706;SDS011;30433;45.596;8.408;2023-08-24T01:05:00;12.93;;;8.48;;
44706;SDS011;30433;45.596;8.408;2023-08-24T01:11:06;10.57;;;7.97;;
44706;SDS011;30433;45.596;8.408;2023-08-24T01:17:14;10.43;;;7.97;;
44706;SDS011;30433;45.596;8.408;2023-08-24T01:23:26;10.48;;;8.30;;
44706;SDS011;30433;45.596;8.408;2023-08-24T01:29:37;10.88;;;7.85;;
44706;SDS011;30433;45.596;8.408;2023-08-24T01:35:40;9.15;;;8.05;;
44706;SDS011;30433;45.596;8.408;2023-08-24T01:41:43;9.52;;;8.18;;
44706;SDS011;30433;45.596;8.408;2023-08-24T01:47:51;12.18;;;8.77;;
44706;SDS011;30433;45.596;8.408;2023-08-24T01:53:55;10.80;;;8.07;;
44706;SDS011;30433;45.596;8.408;2023-08-24T01:59:58;10.30;;;8.30;;
44706;SDS011;30433;45.596;8.408;2023-08-24T02:06:02;9.25;;;8.15;;
44706;SDS011;30433;45.596;8.408;2023-08-24T02:12:07;10.27;;;8.63;;
44706;SDS011;30433;45.596;8.408;2023-08-24T02:18:09;9.68;;;7.90;;
44706;SDS011;30433;45.596;8.408;2023-08-24T02:24:13;9.30;;;8.38;;
44706;SDS011;30433;45.596;8.408;2023-08-24T02:30:15;10.10;;;7.78;;
44706;SDS011;30433;45.596;8.408;2023-08-24T02:36:18;10.07;;;8.43;;
44706;SDS011;30433;45.596;8.408;2023-08-24T02:42:21;10.02;;;7.72;;
44706;SDS011;30433;45.596;8.408;2023-08-24T02:48:24;11.48;;;8.05;;
44706;SDS011;30433;45.596;8.408;2023-08-24T02:54:26;11.77;;;8.60;;
44706;SDS011;30433;45.596;8.408;2023-08-24T03:00:30;12.75;;;8.93;;
44706;SDS011;30433;45.596;8.408;2023-08-24T03:06:33;11.80;;;8.10;;
44706;SDS011;30433;45.596;8.408;2023-08-24T03:12:35;11.13;;;7.80;;
44706;SDS011;30433;45.596;8.408;2023-08-24T03:18:39;11.93;;;7.63;;
44706;SDS011;30433;45.596;8.408;2023-08-24T03:24:41;10.55;;;8.57;;
44706;SDS011;30433;45.596;8.408;2023-08-24T03:30:47;11.75;;;8.07;;
44706;SDS011;30433;45.596;8.408;2023-08-24T03:36:51;12.88;;;8.10;;
44706;SDS011;30433;45.596;8.408;2023-08-24T03:42:54;9.38;;;8.25;;
44706;SDS011;30433;45.596;8.408;2023-08-24T03:48:56;10.20;;;7.78;;
44706;SDS011;30433;45.596;8.408;2023-08-24T03:54:59;10.73;;;7.90;;
44706;SDS011;30433;45.596;8.408;2023-08-24T04:01:02;9.65;;;8.00;;
44706;SDS011;30433;45.596;8.408;2023-08-24T04:07:04;14.30;;;8.10;;
44706;SDS011;30433;45.596;8.408;2023-08-24T04:13:08;9.75;;;7.78;;
44706;SDS011;30433;45.596;8.408;2023-08-24T04:19:10;12.68;;;7.90;;
44706;SDS011;30433;45.596;8.408;2023-08-24T04:25:12;9.88;;;7.80;;
44706;SDS011;30433;45.596;8.408;2023-08-24T04:31:16;13.00;;;7.95;;
44706;SDS011;30433;45.596;8.408;2023-08-24T04:37:18;10.52;;;8.13;;
44706;SDS011;30433;45.596;8.408;2023-08-24T04:43:22;18.30;;;8.95;;
44706;SDS011;30433;45.596;8.408;2023-08-24T04:49:26;32.10;;;9.70;;
44706;SDS011;30433;45.596;8.408;2023-08-24T04:55:29;11.85;;;8.13;;
44706;SDS011;30433;45.596;8.408;2023-08-24T05:01:31;10.55;;;7.90;;
44706;SDS011;30433;45.596;8.408;2023-08-24T05:07:35;13.07;;;8.10;;
44706;SDS011;30433;45.596;8.408;2023-08-24T05:13:39;12.75;;;8.40;;
44706;SDS011;30433;45.596;8.408;2023-08-24T05:19:42;10.07;;;8.13;;
44706;SDS011;30433;45.596;8.408;2023-08-24T05:25:45;15.55;;;9.68;;
44706;SDS011;30433;45.596;8.408;2023-08-24T05:31:47;31.15;;;9.60;;
44706;SDS011;30433;45.596;8.408;2023-08-24T05:37:50;12.65;;;8.50;;
44706;SDS011;30433;45.596;8.408;2023-08-24T05:43:53;18.60;;;8.40;;
44706;SDS011;30433;45.596;8.408;2023-08-24T05:49:57;16.30;;;8.00;;
44706;SDS011;30433;45.596;8.408;2023-08-24T05:55:59;10.88;;;7.65;;
44706;SDS011;30433;45.596;8.408;2023-08-24T06:02:04;14.25;;;7.20;;
44706;SDS011;30433;45.596;8.408;2023-08-24T06:08:06;12.70;;;7.57;;
44706;SDS011;30433;45.596;8.408;2023-08-24T06:14:09;14.98;;;7.68;;
44706;SDS011;30433;45.596;8.408;2023-08-24T06:20:13;10.40;;;7.85;;
44706;SDS011;30433;45.596;8.408;2023-08-24T06:26:16;14.65;;;7.35;;
44706;SDS011;30433;45.596;8.408;2023-08-24T06:32:19;11.88;;;7.18;;
44706;SDS011;30433;45.596;8.408;2023-08-24T06:38:23;11.50;;;7.57;;
44706;SDS011;30433;45.596;8.408;2023-08-24T06:44:25;13.80;;;7.32;;
44706;SDS011;30433;45.596;8.408;2023-08-24T06:50:27;10.57;;;8.18;;
44706;SDS011;30433;45.596;8.408;2023-08-24T06:56:31;11.88;;;6.93;;
44706;SDS011;30433;45.596;8.408;2023-08-24T07:02:33;7.82;;;6.88;;
44706;SDS011;30433;45.596;8.408;2023-08-24T07:08:36;11.30;;;7.20;;
44706;SDS011;30433;45.596;8.408;2023-08-24T07:14:39;12.80;;;7.20;;
44706;SDS011;30433;45.596;8.408;2023-08-24T07:20:42;9.18;;;6.65;;
44706;SDS011;30433;45.596;8.408;2023-08-24T07:26:44;13.68;;;7.75;;
44706;SDS011;30433;45.596;8.408;2023-08-24T07:32:48;10.48;;;7.68;;
44706;SDS011;30433;45.596;8.408;2023-08-24T07:38:50;11.90;;;7.32;;
44706;SDS011;30433;45.596;8.408;2023-08-24T07:44:53;15.13;;;8.18;;
44706;SDS011;30433;45.596;8.408;2023-08-24T07:50:56;11.30;;;7.85;;
44706;SDS011;30433;45.596;8.408;2023-08-24T07:56:58;10.80;;;7.65;;
44706;SDS011;30433;45.596;8.408;2023-08-24T08:03:01;11.85;;;7.85;;
44706;SDS011;30433;45.596;8.408;2023-08-24T08:09:05;12.07;;;7.47;;
44706;SDS011;30433;45.596;8.408;2023-08-24T08:15:07;11.13;;;6.88;;
44706;SDS011;30433;45.596;8.408;2023-08-24T08:21:10;12.05;;;6.78;;
44706;SDS011;30433;45.596;8.408;2023-08-24T08:27:19;10.15;;;7.55;;
44706;SDS011;30433;45.596;8.408;2023-08-24T08:33:22;9.55;;;6.60;;
44706;SDS011;30433;45.596;8.408;2023-08-24T08:39:24;8.27;;;6.80;;
44706;SDS011;30433;45.596;8.408;2023-08-24T08:45:28;9.73;;;7.47;;
44706;SDS011;30433;45.596;8.408;2023-08-24T08:51:31;9.93;;;7.03;;
44706;SDS011;30433;45.596;8.408;2023-08-24T08:57:34;11.45;;;7.22;;
44706;SDS011;30433;45.596;8.408;2023-08-24T09:03:38;8.90;;;7.40;;
44706;SDS011;30433;45.596;8.408;2023-08-24T09:09:41;17.20;;;8.57;;
44706;SDS011;30433;45.596;8.408;2023-08-24T09:15:44;10.13;;;7.55;;
44706;SDS011;30433;45.596;8.408;2023-08-24T09:21:47;13.57;;;7.57;;
44706;SDS011;30433;45.596;8.408;2023-08-24T09:27:55;9.18;;;8.27;;
44706;SDS011;30433;45.596;8.408;2023-08-24T09:33:59;7.65;;;6.85;;
44706;SDS011;30433;45.596;8.408;2023-08-24T09:40:04;9.82;;;7.00;;
44706;SDS011;30433;45.596;8.408;2023-08-24T09:46:08;13.68;;;7.43;;
44706;SDS011;30433;45.596;8.408;2023-08-24T09:52:10;10.52;;;6.80;;
44706;SDS011;30433;45.596;8.408;2023-08-24T09:58:14;10.32;;;6.90;;
44706;SDS011;30433;45.596;8.408;2023-08-24T10:04:18;9.52;;;7.00;;
44706;SDS011;30433;45.596;8.408;2023-08-24T10:10:24;11.18;;;6.40;;
44706;SDS011;30433;45.596;8.408;2023-08-24T10:16:29;8.95;;;6.57;;
44706;SDS011;30433;45.596;8.408;2023-08-24T10:22:32;7.10;;;6.18;;
44706;SDS011;30433;45.596;8.408;2023-08-24T10:28:36;10.10;;;6.78;;
44706;SDS011;30433;45.596;8.408;2023-08-24T10:34:41;11.75;;;6.50;;
44706;SDS011;30433;45.596;8.408;2023-08-24T10:40:44;12.27;;;6.72;;
44706;SDS011;30433;45.596;8.408;2023-08-24T11:05:42;12.95;;;6.50;;
44706;SDS011;30433;45.596;8.408;2023-08-24T11:11:56;8.52;;;5.82;;
44706;SDS011;30433;45.596;8.408;2023-08-24T11:18:12;8.63;;;6.32;;
44706;SDS011;30433;45.596;8.408;2023-08-24T11:24:15;7.97;;;5.75;;
44706;SDS011;30433;45.596;8.408;2023-08-24T11:30:19;13.55;;;7.28;;
44706;SDS011;30433;45.596;8.408;2023-08-24T11:36:22;8.82;;;5.90;;
44706;SDS011;30433;45.596;8.408;2023-08-24T11:42:24;15.55;;;7.30;;
44706;SDS011;30433;45.596;8.408;2023-08-24T11:48:28;11.68;;;6.43;;
44706;SDS011;30433;45.596;8.408;2023-08-24T11:54:32;14.70;;;7.05;;
44706;SDS011;30433;45.596;8.408;2023-08-24T12:00:34;12.95;;;6.85;;
44706;SDS011;30433;45.596;8.408;2023-08-24T12:06:38;11.43;;;6.75;;
44706;SDS011;30433;45.596;8.408;2023-08-24T12:12:41;11.23;;;7.40;;
44706;SDS011;30433;45.596;8.408;2023-08-24T12:18:46;12.18;;;7.50;;
44706;SDS011;30433;45.596;8.408;2023-08-24T12:24:52;7.93;;;6.35;;
44706;SDS011;30433;45.596;8.408;2023-08-24T12:30:55;7.28;;;6.00;;
44706;SDS011;30433;45.596;8.408;2023-08-24T12:36:57;9.52;;;6.40;;
44706;SDS011;30433;45.596;8.408;2023-08-24T12:43:01;11.82;;;6.30;;
44706;SDS011;30433;45.596;8.408;2023-08-24T12:49:03;9.90;;;6.50;;
44706;SDS011;30433;45.596;8.408;2023-08-24T12:55:06;15.02;;;6.75;;
44706;SDS011;30433;45.596;8.408;2023-08-24T13:01:10;11.40;;;6.38;;
44706;SDS011;30433;45.596;8.408;2023-08-24T13:07:13;12.25;;;6.45;;
44706;SDS011;30433;45.596;8.408;2023-08-24T13:13:15;10.02;;;6.70;;
44706;SDS011;30433;45.596;8.408;2023-08-24T13:19:19;9.88;;;6.97;;
44706;SDS011;30433;45.596;8.408;2023-08-24T13:25:21;26.73;;;8.75;;
44706;SDS011;30433;45.596;8.408;2023-08-24T13:31:24;11.70;;;7.50;;
44706;SDS011;30433;45.596;8.408;2023-08-24T13:37:27;6.53;;;5.93;;
44706;SDS011;30433;45.596;8.408;2023-08-24T13:43:30;8.32;;;7.03;;
44706;SDS011;30433;45.596;8.408;2023-08-24T13:49:32;8.48;;;5.78;;
44706;SDS011;30433;45.596;8.408;2023-08-24T13:55:36;7.70;;;5.88;;
44706;SDS011;30433;45.596;8.408;2023-08-24T14:01:41;6.80;;;5.13;;
44706;SDS011;30433;45.596;8.408;2023-08-24T14:07:44;9.18;;;5.47;;
44706;SDS011;30433;45.596;8.408;2023-08-24T14:13:47;9.60;;;4.80;;
44706;SDS011;30433;45.596;8.408;2023-08-24T14:19:50;9.27;;;6.18;;
44706;SDS011;30433;45.596;8.408;2023-08-24T14:25:52;9.00;;;5.55;;
44706;SDS011;30433;45.596;8.408;2023-08-24T14:31:56;7.70;;;5.68;;
44706;SDS011;30433;45.596;8.408;2023-08-24T14:37:58;32.47;;;8.73;;
44706;SDS011;30433;45.596;8.408;2023-08-24T14:44:01;6.72;;;5.50;;
44706;SDS011;30433;45.596;8.408;2023-08-24T14:50:05;9.93;;;5.68;;
44706;SDS011;30433;45.596;8.408;2023-08-24T14:56:08;9.10;;;6.03;;
44706;SDS011;30433;45.596;8.408;2023-08-24T15:02:11;9.70;;;7.10;;
44706;SDS011;30433;45.596;8.408;2023-08-24T15:08:15;12.25;;;7.65;;
44706;SDS011;30433;45.596;8.408;2023-08-24T15:14:17;8.35;;;7.45;;
44706;SDS011;30433;45.596;8.408;2023-08-24T15:20:19;9.68;;;7.93;;
44706;SDS011;30433;45.596;8.408;2023-08-24T15:26:23;8.82;;;7.93;;
44706;SDS011;30433;45.596;8.408;2023-08-24T15:32:25;14.15;;;8.43;;
44706;SDS011;30433;45.596;8.408;2023-08-24T15:38:27;23.52;;;8.98;;
44706;SDS011;30433;45.596;8.408;2023-08-24T15:44:33;16.42;;;8.82;;
44706;SDS011;30433;45.596;8.408;2023-08-24T15:50:35;18.10;;;9.68;;
44706;SDS011;30433;45.596;8.408;2023-08-24T15:56:38;12.18;;;8.85;;
44706;SDS011;30433;45.596;8.408;2023-08-24T16:02:43;13.13;;;8.50;;
44706;SDS011;30433;45.596;8.408;2023-08-24T16:08:45;11.75;;;8.48;;
44706;SDS011;30433;45.596;8.408;2023-08-24T16:14:48;11.35;;;8.65;;
44706;SDS011;30433;45.596;8.408;2023-08-24T16:20:51;11.45;;;8.77;;
44706;SDS011;30433;45.596;8.408;2023-08-24T16:26:54;11.95;;;10.32;;
44706;SDS011;30433;45.596;8.408;2023-08-24T16:32:56;11.45;;;8.73;;
44706;SDS011;30433;45.596;8.408;2023-08-24T16:39:01;12.77;;;8.40;;
44706;SDS011;30433;45.596;8.408;2023-08-24T16:45:04;10.57;;;8.02;;
44706;SDS011;30433;45.596;8.408;2023-08-24T16:51:07;10.48;;;8.18;;
44706;SDS011;30433;45.596;8.408;2023-08-24T16:57:11;13.98;;;7.50;;
44706;SDS011;30433;45.596;8.408;2023-08-24T17:03:13;8.07;;;7.28;;
44706;SDS011;30433;45.596;8.408;2023-08-24T17:09:16;10.70;;;7.15;;
44706;SDS011;30433;45.596;8.408;2023-08-24T17:15:20;9.70;;;7.13;;
44706;SDS011;30433;45.596;8.408;2023-08-24T17:21:22;9.25;;;7.57;;
44706;SDS011;30433;45.596;8.408;2023-08-24T17:27:25;19.65;;;8.45;;
44706;SDS011;30433;45.596;8.408;2023-08-24T17:33:28;10.38;;;8.13;;
44706;SDS011;30433;45.596;8.408;2023-08-24T17:39:31;51.13;;;13.48;;
44706;SDS011;30433;45.596;8.408;2023-08-24T17:45:33;13.25;;;8.10;;
44706;SDS011;30433;45.596;8.408;2023-08-24T17:51:36;14.30;;;8.70;;
44706;SDS011;30433;45.596;8.408;2023-08-24T17:57:39;11.95;;;8.20;;
44706;SDS011;30433;45.596;8.408;2023-08-24T18:03:41;12.43;;;8.35;;
44706;SDS011;30433;45.596;8.408;2023-08-24T18:09:45;11.98;;;7.90;;
44706;SDS011;30433;45.596;8.408;2023-08-24T18:15:47;10.80;;;7.10;;
44706;SDS011;30433;45.596;8.408;2023-08-24T18:21:49;11.15;;;8.20;;
44706;SDS011;30433;45.596;8.408;2023-08-24T18:27:53;17.23;;;8.68;;
44706;SDS011;30433;45.596;8.408;2023-08-24T18:33:55;8.57;;;7.45;;
44706;SDS011;30433;45.596;8.408;2023-08-24T18:39:57;8.68;;;7.75;;
44706;SDS011;30433;45.596;8.408;2023-08-24T18:46:01;8.95;;;7.68;;
44706;SDS011;30433;45.596;8.408;2023-08-24T18:52:04;11.10;;;8.40;;
44706;SDS011;30433;45.596;8.408;2023-08-24T18:58:06;15.07;;;8.43;;
44706;SDS011;30433;45.596;8.408;2023-08-24T19:04:11;10.32;;;8.23;;
44706;SDS011;30433;45.596;8.408;2023-08-24T19:10:14;9.00;;;8.10;;
44706;SDS011;30433;45.596;8.408;2023-08-24T19:16:16;8.68;;;7.70;;
44706;SDS011;30433;45.596;8.408;2023-08-24T19:22:20;13.40;;;8.35;;
44706;SDS011;30433;45.596;8.408;2023-08-24T19:28:23;11.15;;;7.97;;
44706;SDS011;30433;45.596;8.408;2023-08-24T19:34:25;9.10;;;8.18;;
44706;SDS011;30433;45.596;8.408;2023-08-24T19:40:29;8.70;;;7.80;;
44706;SDS011;30433;45.596;8.408;2023-08-24T19:46:32;9.32;;;8.27;;
44706;SDS011;30433;45.596;8.408;2023-08-24T19:52:34;10.02;;;8.10;;
44706;SDS011;30433;45.596;8.408;2023-08-24T19:58:44;8.95;;;8.02;;
44706;SDS011;30433;45.596;8.408;2023-08-24T20:04:46;11.20;;;8.15;;
44706;SDS011;30433;45.596;8.408;2023-08-24T20:10:50;9.30;;;8.50;;
44706;SDS011;30433;45.596;8.408;2023-08-24T20:16:54;11.35;;;8.00;;
44706;SDS011;30433;45.596;8.408;2023-08-24T20:22:56;9.10;;;8.23;;
44706;SDS011;30433;45.596;8.408;2023-08-24T20:28:59;11.05;;;8.52;;
44706;SDS011;30433;45.596;8.408;2023-08-24T20:35:03;11.00;;;8.38;;
44706;SDS011;30433;45.596;8.408;2023-08-24T20:41:06;10.63;;;8.50;;
44706;SDS011;30433;45.596;8.408;2023-08-24T20:47:08;10.27;;;8.73;;
44706;SDS011;30433;45.596;8.408;2023-08-24T20:53:12;12.80;;;8.20;;
44706;SDS011;30433;45.596;8.408;2023-08-24T20:59:15;9.55;;;8.55;;
44706;SDS011;30433;45.596;8.408;2023-08-24T21:05:17;9.48;;;8.50;;
44706;SDS011;30433;45.596;8.408;2023-08-24T21:11:21;11.05;;;8.60;;
44706;SDS011;30433;45.596;8.408;2023-08-24T21:17:23;12.23;;;7.72;;
44706;SDS011;30433;45.596;8.408;2023-08-24T21:23:26;10.65;;;8.23;;
44706;SDS011;30433;45.596;8.408;2023-08-24T21:29:31;10.23;;;7.75;;
44706;SDS011;30433;45.596;8.408;2023-08-24T21:35:34;9.90;;;8.30;;
44706;SDS011;30433;45.596;8.408;2023-08-24T21:41:36;12.82;;;8.07;;
44706;SDS011;30433;45.596;8.408;2023-08-24T21:47:40;10.77;;;8.32;;
44706;SDS011;30433;45.596;8.408;2023-08-24T21:53:43;9.65;;;7.95;;
44706;SDS011;30433;45.596;8.408;2023-08-24T21:59:45;9.70;;;7.80;;
44706;SDS011;30433;45.596;8.408;2023-08-24T22:05:49;10.27;;;8.55;;
44706;SDS011;30433;45.596;8.408;2023-08-24T22:11:52;9.30;;;7.88;;
44706;SDS011;30433;45.596;8.408;2023-08-24T22:17:54;8.32;;;7.40;;
44706;SDS011;30433;45.596;8.408;2023-08-24T22:23:58;11.32;;;8.02;;
44706;SDS011;30433;45.596;8.408;2023-08-24T22:30:00;11.60;;;7.57;;
44706;SDS011;30433;45.596;8.408;2023-08-24T22:36:04;15.07;;;8.00;;
44706;SDS011;30433;45.596;8.408;2023-08-24T22:42:09;10.43;;;7.57;;
44706;SDS011;30433;45.596;8.408;2023-08-24T22:48:12;11.27;;;7.55;;
44706;SDS011;30433;45.596;8.408;2023-08-24T22:54:14;11.90;;;7.75;;
44706;SDS011;30433;45.596;8.408;2023-08-24T23:00:19;9.80;;;7.32;;
44706;SDS011;30433;45.596;8.408;2023-08-24T23:06:21;9.82;;;7.70;;
44706;SDS011;30433;45.596;8.408;2023-08-24T23:12:36;9.23;;;7.68;;
44706;SDS011;30433;45.596;8.408;2023-08-24T23:18:40;8.88;;;7.32;;
44706;SDS011;30433;45.596;8.408;2023-08-24T23:24:42;8.88;;;7.57;;
44706;SDS011;30433;45.596;8.408;2023-08-24T23:30:45;8.98;;;7.40;;
44706;SDS011;30433;45.596;8.408;2023-08-24T23:36:48;13.45;;;8.25;;
44706;SDS011;30433;45.596;8.408;2023-08-24T23:42:51;9.52;;;7.93;;
44706;SDS011;30433;45.596;8.408;2023-08-24T23:48:54;10.18;;;8.05;;
44706;SDS011;30433;45.596;8.408;2023-08-24T23:54:57;9.13;;;8.23;;
